Observations for MINNEAPOLIS-ST PAUL, MN (MSP)

KMSP 241515Z 08008KT 3SM BR BKN003 BKN020 M09/M10 A3009 RMK AO2 T10941100
KMSP 241500Z 07006KT 2 1/2SM BR BKN003 BKN020 M11/M11 A3010 RMK AO2 PRESFR T11061111
KMSP 241453Z 07006KT 2 1/2SM BR BKN006 M11/M12 A3011 RMK AO2 SLP212 I1001 I3001 T11061117 58017 
KMSP 241451Z 08006KT 1/4SM R30L/P6000FT BR BKN006 M11/M12 A3011 RMK AO2 SFC VIS2 1/2 I1000
KMSP 241353Z 10007KT 1/4SM R30L/2400VP6000FT FZFG OVC003 M13/M13 A3016 RMK AO2 SLP230 T11281133 
KMSP 241341Z 11004KT 1/2SM R30L/P6000FT FZFG OVC002 M13/M13 A3017 RMK AO2 T11331133
KMSP 241315Z 14004KT 1 1/2SM R30L/4000VP6000FT BR OVC002 M12/M13 A3017 RMK AO2 T11221128
KMSP 241303Z 08004KT 2 1/2SM BR BKN002 BKN170 M12/M13 A3016 RMK AO2 T11221128
KMSP 241253Z 06005KT 4SM BR SCT003 BKN170 M12/M13 A3016 RMK AO2 SLP228 I1000 T11221133  
KMSP 241153Z 00000KT 4SM BR SCT180 M13/M15 A3018 RMK AO2 SLP234 4/007 I1000 I6000 T11331150 11083 21150 58023   
KMSP 241053Z 00000KT 5SM BR CLR M13/M16 A3020 RMK AO2 SLP243 T11331156  
KMSP 240953Z 00000KT 6SM BR CLR M12/M13 A3022 RMK AO2 SLP249 I1000 T11221133
KMSP 240853Z 21004KT 5SM BR CLR M10/M12 A3025 RMK AO2 SLP256 I1000 I3000 T11001117 56010
KMSP 240753Z 00000KT 8SM CLR M10/M12 A3026 RMK AO2 SLP260 I1000 T11001117   
KMSP 240653Z 00000KT 9SM CLR M10/M12 A3026 RMK AO2 SLP262 I1000 T11001117   
KMSP 240553Z 32003KT 9SM CLR M08/M10 A3028 RMK AO2 SLP267 4/007 T10831100 11028 21089 400001089 58008   
KMSP 240453Z 29004KT 7SM CLR M08/M10 A3029 RMK AO2 SLP270 T10831100 
KMSP 240353Z 29006KT 8SM CLR M08/M09 A3030 RMK AO2 SLP276 T10781094 
KMSP 240253Z 26004KT 8SM CLR M06/M08 A3030 RMK AO2 SLP275 T10611078 52013   
KMSP 240153Z 24005KT 8SM CLR M05/M07 A3029 RMK AO2 SLP271 T10501072 
KMSP 240053Z 24005KT 9SM CLR M04/M07 A3028 RMK AO2 SLP266 T10391067 
KMSP 232353Z 23009KT 8SM CLR M03/M06 A3026 RMK AO2 SLP261 4/007 T10281061 10000 21028 53024 
KMSP 232253Z 26009KT 10SM FEW020 M01/M06 A3023 RMK AO2 SLP248 T10111056 
KMSP 232153Z 25009KT 10SM FEW020 M01/M06 A3021 RMK AO2 SLP241 T10061056 
KMSP 232053Z 25008KT 10SM FEW020 00/M05 A3019 RMK AO2 SLP236 T00001050 53001
KMSP 231953Z 25008KT 10SM FEW023 00/M06 A3019 RMK AO2 SLP234 T00001056  
KMSP 231949Z 25010KT 10SM SCT023 00/M06 A3019 RMK AO2
KMSP 231853Z 26008KT 10SM BKN021 M01/M05 A3019 RMK AO2 SLP235 T10061050 
KMSP 231753Z 29010KT 10SM OVC019 M02/M05 A3018 RMK AO2 SLP230 4/007 T10171050 11017 21033 51020 
KMSP 231653Z 28010KT 9SM OVC018 M02/M05 A3016 RMK AO2 SLP224 T10221050  
KMSP 231631Z 31009KT 9SM BKN016 M03/M06 A3014 RMK AO2 T10281056
KMSP 231553Z 29010KT 8SM OVC013 M03/M05 A3013 RMK AO2 SLP217 T10331050  
KMSP 231453Z 30011KT 8SM OVC010 M03/M04 A3011 RMK AO2 SLP210 T10331044 53023